Hebron, NE

11:57 PM CST on December 09, 2019 (GMT -0600)
Hebron Municipal

Weather History for KHJH - September, 2019

Change the Weather History Date:

Thursday, September 19, 2019

  Actual Average Record
Temperature  
Mean Temperature 80 °F -  
Max Temperature 91 °F 79 °F 97 °F (1948)
Min Temperature 69 °F 53 °F 29 °F (1991)
Cooling Degree Days 15    
Growing Degree Days 30 (Base 50)    
Moisture  
Dew Point 67 °F    
Average Humidity 68    
Maximum Humidity 90    
Minimum Humidity 43    
Precipitation  
Precipitation 0.00 in - - ()
Sea Level Pressure  
Sea Level Pressure 29.95 in    
Wind  
Wind Speed 7 mph (SSE)    
Max Wind Speed 17 mph    
Max Gust Speed 24 mph    
Visibility 10 miles    
Events      
Averages and records for this station are not official NWS values.
T = Trace of Precipitation, MM = Missing Value Source: NWS Daily Summary

Daily Weather History Graph

Daily Weather History Graph

Search for Another Location

Airport or City:

Astronomy

Sep. 19, 2019 Rise Set
Actual Time 7:14 AM CDT 7:32 PM CDT
Civil Twilight 6:47 AM CDT 7:59 PM CDT
Nautical Twilight 6:15 AM CDT 8:31 PM CDT
Astronomical Twilight 5:43 AM CDT 9:04 PM CDT
Moon 10:42 PM CDT (9/19) 12:19 PM CDT (9/19)
Length of Visible Light 13h 12m
Length of Day
12h 17m
Waning Gibbous, 74% of the Moon is Illuminated
Sep 19
Waning Gibbous
Sep 21
Last Quarter
Sep 28
New
Oct 5
First Quarter
Oct 13
Full

Hourly Weather History & Observations

Time (CDT) Temp. Heat Index Dew Point Humidity Pressure Visibility Wind Dir Wind Speed Gust Speed Precip Events Conditions
12:15 AM 77.9 °F - 66.4 °F 68% 29.94 in 10.0 mi South 8.1 mph - N/A   Clear
12:35 AM 77.7 °F - 66.4 °F 68% 29.94 in 10.0 mi South 8.1 mph - N/A   Clear
12:55 AM 77.0 °F - 66.6 °F 70% 29.94 in 10.0 mi South 9.2 mph - N/A   Clear
1:15 AM 76.5 °F - 66.7 °F 72% 29.93 in 10.0 mi South 8.1 mph - N/A   Clear
1:35 AM 76.1 °F - 66.9 °F 73% 29.94 in 10.0 mi South 5.8 mph - N/A   Clear
1:55 AM 75.4 °F - 66.7 °F 74% 29.94 in 10.0 mi South 6.9 mph - N/A   Clear
2:15 AM 75.2 °F - 67.1 °F 76% 29.94 in 10.0 mi South 4.6 mph - N/A   Clear
2:35 AM 74.7 °F - 67.1 °F 77% 29.94 in 10.0 mi South 4.6 mph - N/A   Clear
2:55 AM 73.8 °F - 67.1 °F 80% 29.94 in 10.0 mi SSE 4.6 mph - N/A   Clear
3:15 AM 73.4 °F - 67.1 °F 81% 29.93 in 10.0 mi Calm Calm - N/A   Clear
3:35 AM 72.9 °F - 67.1 °F 82% 29.93 in 10.0 mi South 3.5 mph - N/A   Clear
3:55 AM 72.7 °F - 67.1 °F 83% 29.94 in 10.0 mi South 4.6 mph - N/A   Clear
4:15 AM 72.3 °F - 67.1 °F 84% 29.94 in 10.0 mi South 4.6 mph - N/A   Clear
4:35 AM 72.0 °F - 67.1 °F 85% 29.94 in 10.0 mi South 4.6 mph - N/A   Clear
4:55 AM 71.6 °F - 67.1 °F 86% 29.94 in 10.0 mi South 3.5 mph - N/A   Clear
5:15 AM 71.6 °F - 67.1 °F 86% 29.94 in 10.0 mi SSE 4.6 mph - N/A   Clear
5:35 AM 71.2 °F - 67.1 °F 87% 29.94 in 10.0 mi SSE 4.6 mph - N/A   Clear
5:55 AM 70.9 °F - 66.9 °F 87% 29.95 in 10.0 mi Calm Calm - N/A   Clear
6:15 AM 70.7 °F - 66.7 °F 87% 29.96 in 10.0 mi SSE 3.5 mph - N/A   Clear
6:35 AM 70.2 °F - 66.7 °F 89% 29.96 in 10.0 mi Calm Calm - N/A   Clear
6:55 AM 69.8 °F - 66.6 °F 89% 29.96 in 10.0 mi Calm Calm - N/A   Clear
7:15 AM 69.4 °F - 66.4 °F 90% 29.96 in 10.0 mi South 3.5 mph - N/A   Clear
7:35 AM 69.8 °F - 66.6 °F 89% 29.97 in 10.0 mi Calm Calm - N/A   Clear
7:55 AM 70.7 °F - 67.1 °F 88% 29.97 in 10.0 mi Calm Calm - N/A   Scattered Clouds
8:15 AM 72.1 °F - 67.5 °F 85% 29.97 in 10.0 mi Calm Calm - N/A   Mostly Cloudy
8:35 AM 72.7 °F - 67.8 °F 85% 29.97 in 10.0 mi Calm Calm - N/A   Mostly Cloudy
8:55 AM 74.1 °F - 68.0 °F 81% 29.98 in 10.0 mi Calm Calm - N/A   Overcast
9:15 AM 74.8 °F - 68.5 °F 81% 30.00 in 10.0 mi NE 13.8 mph - N/A   Overcast
9:35 AM 75.7 °F - 68.4 °F 78% 30.02 in 10.0 mi ENE 11.5 mph 16.1 mph N/A   Overcast
9:55 AM 74.3 °F - 66.7 °F 77% 30.02 in 10.0 mi East 13.8 mph - N/A   Mostly Cloudy
10:35 AM 75.4 °F - 66.4 °F 73% 30.02 in 10.0 mi East 12.7 mph 17.3 mph N/A   Clear
10:55 AM 77.2 °F - 66.6 °F 70% 30.02 in 10.0 mi East 13.8 mph - N/A   Clear
11:15 AM 79.5 °F - 67.6 °F 67% 30.01 in 10.0 mi ESE 13.8 mph 18.4 mph N/A   Clear
11:35 AM 80.8 °F 83.6 °F 68.4 °F 66% 30.01 in 10.0 mi ESE 12.7 mph 18.4 mph N/A   Clear
11:55 AM 82.0 °F 85.5 °F 69.4 °F 65% 30.00 in 10.0 mi SE 12.7 mph 17.3 mph N/A   Clear
12:15 PM 84.0 °F 88.4 °F 70.2 °F 63% 29.99 in 10.0 mi SE 10.4 mph 17.3 mph N/A   Clear
12:35 PM 86.0 °F 90.7 °F 70.2 °F 59% 29.98 in 10.0 mi SE 8.1 mph - N/A   Clear
12:55 PM 86.4 °F 90.4 °F 69.1 °F 56% 29.97 in 10.0 mi SSE 9.2 mph 19.6 mph N/A   Scattered Clouds
1:15 PM 87.6 °F 92.3 °F 69.4 °F 55% 29.97 in 10.0 mi South 10.4 mph 17.3 mph N/A   Scattered Clouds
1:35 PM 88.5 °F 93.1 °F 69.3 °F 53% 29.96 in 10.0 mi South 13.8 mph - N/A   Scattered Clouds
1:55 PM 88.0 °F 92.5 °F 69.4 °F 54% 29.96 in 10.0 mi SE 12.7 mph 18.4 mph N/A   Scattered Clouds
2:15 PM 89.1 °F 93.3 °F 68.9 °F 51% 29.95 in 10.0 mi South 11.5 mph 19.6 mph N/A   Scattered Clouds
2:35 PM 90.0 °F 94.1 °F 68.7 °F 49% 29.95 in 10.0 mi SSE 17.3 mph 21.9 mph N/A   Scattered Clouds
2:55 PM 90.3 °F 94.3 °F 68.2 °F 48% 29.94 in 10.0 mi South 13.8 mph 23.0 mph N/A   Scattered Clouds
3:15 PM 90.7 °F 94.5 °F 68.2 °F 47% 29.93 in 10.0 mi South 12.7 mph 21.9 mph N/A   Scattered Clouds
3:35 PM 91.4 °F 95.4 °F 68.2 °F 46% 29.93 in 10.0 mi SSE 9.2 mph 17.3 mph N/A   Scattered Clouds
3:55 PM 91.0 °F 93.8 °F 66.6 °F 44% 29.93 in 10.0 mi SSE 13.8 mph 21.9 mph N/A   Scattered Clouds
4:15 PM 90.9 °F 94.4 °F 67.3 °F 46% 29.92 in 10.0 mi South 13.8 mph 17.3 mph N/A   Scattered Clouds
4:35 PM 91.4 °F 94.0 °F 66.0 °F 43% 29.91 in 10.0 mi South 11.5 mph 24.2 mph N/A   Scattered Clouds
4:55 PM 91.8 °F 94.6 °F 66.4 °F 43% 29.91 in 10.0 mi SSE 12.7 mph 17.3 mph N/A   Mostly Cloudy
5:15 PM 91.0 °F 93.4 °F 65.8 °F 43% 29.91 in 10.0 mi SSE 11.5 mph 18.4 mph N/A   Scattered Clouds
5:35 PM 91.0 °F 93.4 °F 65.8 °F 43% 29.91 in 10.0 mi South 9.2 mph 16.1 mph N/A   Clear
5:55 PM 90.5 °F 92.5 °F 64.9 °F 43% 29.90 in 10.0 mi SSE 12.7 mph 18.4 mph N/A   Clear
6:15 PM 89.6 °F 91.5 °F 64.8 °F 44% 29.90 in 10.0 mi SSE 11.5 mph 17.3 mph N/A   Clear
6:35 PM 88.7 °F 91.1 °F 66.2 °F 47% 29.90 in 10.0 mi SSE 9.2 mph - N/A   Clear
6:55 PM 87.3 °F 89.5 °F 66.2 °F 49% 29.90 in 10.0 mi SSE 10.4 mph - N/A   Clear
7:15 PM 84.7 °F 87.6 °F 67.5 °F 56% 29.90 in 10.0 mi SSE 5.8 mph - N/A   Clear
7:35 PM 83.3 °F 86.2 °F 67.5 °F 59% 29.91 in 10.0 mi SSE 8.1 mph - N/A   Clear
7:55 PM 82.9 °F 85.6 °F 67.3 °F 59% 29.92 in 10.0 mi SSE 6.9 mph - N/A   Clear
8:15 PM 81.5 °F 84.1 °F 67.3 °F 62% 29.92 in 10.0 mi SSE 5.8 mph - N/A   Clear
8:35 PM 80.1 °F 82.4 °F 67.3 °F 65% 29.93 in 10.0 mi SE 5.8 mph - N/A   Clear
8:55 PM 79.9 °F - 67.1 °F 65% 29.94 in 10.0 mi SSE 6.9 mph - N/A   Clear
9:15 PM 79.3 °F - 67.1 °F 66% 29.94 in 10.0 mi SSE 6.9 mph - N/A   Clear
9:35 PM 79.0 °F - 67.3 °F 67% 29.94 in 10.0 mi SSE 6.9 mph - N/A   Clear
9:55 PM 79.2 °F - 67.6 °F 68% 29.94 in 10.0 mi South 9.2 mph - N/A   Clear
10:15 PM 78.8 °F - 68.0 °F 69% 29.95 in 10.0 mi SSE 6.9 mph - N/A   Clear
10:35 PM 78.1 °F - 68.0 °F 71% 29.95 in 10.0 mi South 6.9 mph - N/A   Clear
10:55 PM 77.4 °F - 68.0 °F 73% 29.95 in 10.0 mi South 6.9 mph - N/A   Clear
11:15 PM 77.4 °F - 68.2 °F 73% 29.96 in 10.0 mi SSE 6.9 mph - N/A   Clear
11:35 PM 77.2 °F - 68.4 °F 74% 29.96 in 10.0 mi SSE 6.9 mph - N/A   Clear
11:55 PM 77.0 °F - 68.4 °F 75% 29.96 in 10.0 mi South 6.9 mph - N/A   Clear